createdAt,value
2023-11-29T00:00:13.603Z,8.00
2023-11-29T00:02:43.176Z,6.93
2023-11-29T00:05:13.907Z,7.57
2023-11-29T00:07:44.261Z,8.17
2023-11-29T00:10:12.361Z,7.30
2023-11-29T00:12:40.370Z,7.60
2023-11-29T00:15:12.109Z,7.97
2023-11-29T00:17:40.177Z,6.60
2023-11-29T00:20:09.682Z,6.90
2023-11-29T00:22:39.107Z,6.90
2023-11-29T00:25:08.587Z,6.97
2023-11-29T00:27:37.857Z,7.20
2023-11-29T00:30:06.725Z,7.50
2023-11-29T00:32:34.743Z,8.33
2023-11-29T00:35:02.814Z,8.37
2023-11-29T00:37:30.801Z,7.63
2023-11-29T00:40:00.986Z,7.30
2023-11-29T00:42:29.136Z,8.03
2023-11-29T00:44:57.802Z,7.87
2023-11-29T00:47:26.065Z,8.50
2023-11-29T00:49:54.148Z,8.03
2023-11-29T00:52:22.095Z,8.40
2023-11-29T00:54:50.269Z,10.10
2023-11-29T00:57:24.477Z,8.30
2023-11-29T00:59:52.468Z,7.73
2023-11-29T01:02:20.622Z,9.30
2023-11-29T01:04:49.341Z,9.27
2023-11-29T01:07:18.142Z,8.00
2023-11-29T01:09:46.585Z,8.13
2023-11-29T01:12:15.287Z,7.90
2023-11-29T01:14:44.699Z,8.70
2023-11-29T01:17:12.757Z,9.83
2023-11-29T01:19:40.751Z,9.67
2023-11-29T01:22:09.442Z,7.17
2023-11-29T01:24:37.428Z,8.40
2023-11-29T01:27:05.526Z,9.37
2023-11-29T01:29:34.056Z,8.10
2023-11-29T01:32:04.516Z,8.70
2023-11-29T01:34:32.472Z,9.10
2023-11-29T01:37:00.505Z,8.53
2023-11-29T01:39:28.508Z,9.47
2023-11-29T01:41:56.754Z,8.40
2023-11-29T01:44:25.447Z,8.07
2023-11-29T01:46:53.839Z,8.80
2023-11-29T01:49:23.755Z,8.60
2023-11-29T01:51:53.073Z,9.53
2023-11-29T01:54:22.470Z,8.20
2023-11-29T01:56:52.848Z,8.40
2023-11-29T01:59:21.488Z,8.57
2023-11-29T02:01:49.576Z,9.13
2023-11-29T02:04:18.656Z,8.63
2023-11-29T02:06:48.339Z,9.17
2023-11-29T02:09:16.854Z,9.17
2023-11-29T02:11:45.916Z,9.90
2023-11-29T02:14:13.953Z,10.10
2023-11-29T02:16:41.975Z,9.30
2023-11-29T02:19:10.160Z,10.83
2023-11-29T02:21:38.588Z,9.63
2023-11-29T02:24:13.210Z,8.87
2023-11-29T02:26:42.652Z,9.40
2023-11-29T02:29:10.978Z,9.70
2023-11-29T02:31:39.005Z,9.07
2023-11-29T02:34:07.038Z,8.33
2023-11-29T02:36:35.149Z,8.50
2023-11-29T02:39:04.271Z,9.80
2023-11-29T02:41:32.405Z,9.77
2023-11-29T02:44:01.874Z,10.80
2023-11-29T02:46:29.936Z,9.43
2023-11-29T02:48:58.470Z,9.50
2023-11-29T02:51:28.713Z,11.20
2023-11-29T02:53:56.746Z,10.30
2023-11-29T02:56:24.817Z,11.87
2023-11-29T02:58:53.722Z,10.90
2023-11-29T03:01:23.091Z,10.87
2023-11-29T03:03:51.187Z,10.73
2023-11-29T03:06:19.217Z,10.87
2023-11-29T03:08:47.344Z,9.90
2023-11-29T03:11:15.442Z,10.23
2023-11-29T03:13:43.739Z,11.73
2023-11-29T03:16:11.910Z,10.60
2023-11-29T03:18:41.858Z,11.53
2023-11-29T03:21:09.849Z,9.70
2023-11-29T03:23:37.924Z,11.27
2023-11-29T03:26:07.407Z,9.93
2023-11-29T03:28:35.444Z,10.60
2023-11-29T03:31:03.515Z,11.27
2023-11-29T03:33:32.067Z,10.13
2023-11-29T03:36:01.508Z,9.50
2023-11-29T03:38:29.547Z,10.47
2023-11-29T03:40:57.728Z,11.07
2023-11-29T03:43:25.738Z,11.33
2023-11-29T03:45:54.836Z,10.00
2023-11-29T03:48:23.026Z,11.00
2023-11-29T03:50:51.096Z,10.70
2023-11-29T03:53:20.756Z,12.27
2023-11-29T03:55:48.804Z,11.43
2023-11-29T03:58:16.777Z,10.50
2023-11-29T04:00:44.795Z,11.90
2023-11-29T04:03:12.995Z,13.30
2023-11-29T04:05:41.037Z,12.20
2023-11-29T04:08:09.088Z,12.87
2023-11-29T04:10:38.396Z,12.67
2023-11-29T04:13:07.132Z,13.20
2023-11-29T04:15:35.082Z,10.87
2023-11-29T04:18:03.169Z,10.97
2023-11-29T04:20:31.238Z,11.23
2023-11-29T04:22:59.378Z,12.23
2023-11-29T04:25:27.593Z,10.93
2023-11-29T04:27:57.148Z,11.57
2023-11-29T04:30:27.918Z,11.83
2023-11-29T04:32:56.630Z,11.23
2023-11-29T04:35:25.241Z,11.90
2023-11-29T04:37:55.629Z,12.23
2023-11-29T04:40:23.829Z,12.07
2023-11-29T04:42:54.103Z,13.10
2023-11-29T04:45:23.426Z,10.87
2023-11-29T04:47:51.554Z,12.23
2023-11-29T04:50:19.578Z,12.67
2023-11-29T04:52:47.776Z,10.60
2023-11-29T04:55:16.887Z,10.90
2023-11-29T04:57:47.085Z,9.37
2023-11-29T05:00:16.303Z,10.77
2023-11-29T05:02:46.952Z,10.60
2023-11-29T05:05:16.127Z,10.70
2023-11-29T05:07:50.202Z,10.27
2023-11-29T05:10:18.244Z,9.97
2023-11-29T05:12:46.813Z,10.60
2023-11-29T05:15:22.052Z,9.87
2023-11-29T05:17:56.425Z,11.00
2023-11-29T05:20:24.838Z,9.40
2023-11-29T05:22:52.876Z,10.17
2023-11-29T05:25:21.483Z,12.30
2023-11-29T05:27:49.716Z,11.20
2023-11-29T05:30:17.996Z,9.07
2023-11-29T05:32:47.218Z,11.40
2023-11-29T05:35:17.084Z,10.40
2023-11-29T05:37:45.308Z,11.90
2023-11-29T05:40:14.092Z,12.90
2023-11-29T05:42:42.974Z,13.20
2023-11-29T05:45:11.344Z,12.77
2023-11-29T05:47:39.976Z,12.30
2023-11-29T05:50:09.140Z,13.13
2023-11-29T05:52:38.787Z,12.23
2023-11-29T05:55:08.252Z,11.83
2023-11-29T05:57:36.681Z,11.10
2023-11-29T06:00:23.671Z,10.60
2023-11-29T06:02:56.927Z,10.80
2023-11-29T06:05:26.311Z,12.60
2023-11-29T06:07:55.828Z,10.00
2023-11-29T06:10:23.967Z,10.50
2023-11-29T06:12:51.986Z,11.10
2023-11-29T06:15:20.040Z,9.33
2023-11-29T06:17:48.475Z,11.43
2023-11-29T06:20:19.512Z,12.10
2023-11-29T06:22:47.998Z,12.03
2023-11-29T06:25:21.628Z,10.90
2023-11-29T06:27:49.788Z,10.63
2023-11-29T06:30:19.631Z,10.40
2023-11-29T06:32:47.732Z,12.00
2023-11-29T06:35:17.099Z,11.53
2023-11-29T06:37:51.305Z,11.57
2023-11-29T06:40:26.297Z,10.77
2023-11-29T06:42:55.108Z,12.73
2023-11-29T06:45:23.361Z,15.00
2023-11-29T06:47:52.299Z,14.50
2023-11-29T06:50:20.567Z,14.17
2023-11-29T06:52:48.758Z,14.10
2023-11-29T06:55:16.865Z,12.57
2023-11-29T06:57:47.310Z,12.40
2023-11-29T07:00:17.983Z,12.30
2023-11-29T07:02:47.342Z,12.30
2023-11-29T07:05:17.705Z,12.10
2023-11-29T07:07:47.694Z,13.20
2023-11-29T07:10:15.918Z,11.83
2023-11-29T07:12:43.912Z,13.37
2023-11-29T07:15:13.665Z,11.87
2023-11-29T07:17:41.671Z,11.93
2023-11-29T07:20:11.519Z,11.13
2023-11-29T07:22:39.501Z,10.67
2023-11-29T07:25:08.923Z,11.50
2023-11-29T07:27:38.469Z,16.43
2023-11-29T07:30:07.931Z,14.07
2023-11-29T07:32:37.386Z,19.20
2023-11-29T07:35:06.545Z,23.37
2023-11-29T07:37:34.670Z,20.87
2023-11-29T07:40:02.760Z,31.80
2023-11-29T07:42:30.850Z,25.30
2023-11-29T07:44:58.831Z,19.07
2023-11-29T07:47:27.008Z,16.67
2023-11-29T07:49:56.461Z,13.27
2023-11-29T07:52:24.955Z,12.90
2023-11-29T07:54:52.979Z,10.87
2023-11-29T07:57:20.958Z,10.47
2023-11-29T07:59:49.035Z,9.20
2023-11-29T08:02:17.072Z,8.97
2023-11-29T08:04:46.000Z,8.33
2023-11-29T08:07:15.770Z,16.93
2023-11-29T08:09:45.439Z,14.03
2023-11-29T08:12:14.348Z,13.73
2023-11-29T08:14:42.524Z,9.37
2023-11-29T08:17:11.376Z,6.80
2023-11-29T08:19:39.458Z,6.00
2023-11-29T08:22:07.775Z,7.10
2023-11-29T08:24:37.471Z,6.40
2023-11-29T08:27:05.968Z,7.00
2023-11-29T08:29:36.587Z,5.40
2023-11-29T08:32:04.670Z,4.80
2023-11-29T08:34:32.802Z,5.53
2023-11-29T08:37:00.805Z,4.87
2023-11-29T08:39:28.945Z,4.57
2023-11-29T08:41:58.418Z,4.30
2023-11-29T08:44:26.703Z,3.90
2023-11-29T08:46:54.673Z,5.53
2023-11-29T08:49:22.808Z,4.77
2023-11-29T08:51:51.382Z,4.80
2023-11-29T08:54:23.305Z,4.70
2023-11-29T08:56:51.330Z,5.23
2023-11-29T08:59:21.362Z,5.90
2023-11-29T09:01:49.469Z,6.70
2023-11-29T09:04:17.565Z,5.47
2023-11-29T09:06:45.765Z,5.57
2023-11-29T09:09:13.766Z,11.63
2023-11-29T09:11:41.842Z,7.77
2023-11-29T09:14:09.943Z,6.13
2023-11-29T09:16:39.976Z,6.17
2023-11-29T09:19:09.517Z,5.47
2023-11-29T09:21:37.952Z,6.10
2023-11-29T09:24:06.765Z,5.13
2023-11-29T09:26:34.845Z,5.83
2023-11-29T09:29:03.194Z,5.80
2023-11-29T09:31:31.236Z,6.20
2023-11-29T09:34:02.278Z,5.23
2023-11-29T09:36:30.276Z,5.90
2023-11-29T09:38:58.518Z,5.90
2023-11-29T09:41:26.825Z,5.80
2023-11-29T09:43:55.004Z,5.93
2023-11-29T09:46:23.091Z,5.90
2023-11-29T09:48:51.867Z,5.47
2023-11-29T09:51:24.013Z,5.23
2023-11-29T09:53:52.076Z,5.73
2023-11-29T09:56:23.297Z,5.60
2023-11-29T09:58:51.747Z,6.00
2023-11-29T10:01:23.222Z,5.57
2023-11-29T10:04:04.706Z,4.90
2023-11-29T10:06:36.141Z,5.40
2023-11-29T10:09:08.437Z,5.67
2023-11-29T10:11:36.594Z,5.17
2023-11-29T10:14:05.697Z,4.63
2023-11-29T10:16:34.374Z,4.67
2023-11-29T10:19:05.047Z,4.27
2023-11-29T10:21:34.630Z,5.27
2023-11-29T10:24:02.733Z,4.33
2023-11-29T10:26:31.128Z,4.87
2023-11-29T10:28:59.137Z,5.20
2023-11-29T10:31:28.939Z,5.10
2023-11-29T10:33:57.630Z,4.50
2023-11-29T10:36:28.334Z,5.40
2023-11-29T10:39:05.442Z,5.30
2023-11-29T10:41:38.106Z,4.50
2023-11-29T10:44:07.759Z,5.10
2023-11-29T10:46:37.830Z,4.80
2023-11-29T10:49:10.744Z,5.17
2023-11-29T10:51:40.170Z,5.13
2023-11-29T10:54:11.512Z,4.27
2023-11-29T10:56:40.439Z,5.20
2023-11-29T10:59:19.564Z,5.30
2023-11-29T11:01:49.502Z,4.70
2023-11-29T11:04:17.920Z,5.40
2023-11-29T11:06:46.057Z,4.93
2023-11-29T11:09:37.353Z,5.30
2023-11-29T11:12:08.013Z,3.87
2023-11-29T11:14:49.180Z,4.30
2023-11-29T11:17:19.762Z,4.43
2023-11-29T11:19:49.161Z,4.63
2023-11-29T11:22:27.985Z,4.70
2023-11-29T11:25:04.612Z,4.20
2023-11-29T11:27:37.764Z,4.40
2023-11-29T11:30:29.634Z,4.67
2023-11-29T11:32:59.151Z,4.73
2023-11-29T11:35:37.766Z,4.10
2023-11-29T11:38:08.958Z,5.13
2023-11-29T11:40:40.444Z,7.50
2023-11-29T11:43:10.319Z,10.50
2023-11-29T11:45:38.996Z,5.50
2023-11-29T11:48:09.364Z,5.63
2023-11-29T11:50:38.060Z,4.60
2023-11-29T11:53:07.550Z,4.47
2023-11-29T11:55:40.545Z,5.60
2023-11-29T11:58:11.134Z,4.10
2023-11-29T12:00:41.147Z,5.87
2023-11-29T12:03:10.784Z,5.50
2023-11-29T12:05:41.311Z,4.90
2023-11-29T12:08:10.218Z,4.40
2023-11-29T12:10:40.632Z,5.30
2023-11-29T12:13:10.040Z,5.40
2023-11-29T12:15:39.080Z,5.20
2023-11-29T12:18:15.618Z,5.77
2023-11-29T12:20:44.557Z,5.53
2023-11-29T12:23:15.034Z,7.37
2023-11-29T12:25:44.996Z,5.70
2023-11-29T12:28:16.260Z,5.13
2023-11-29T12:30:44.847Z,6.00
2023-11-29T12:33:16.542Z,5.03
2023-11-29T12:35:44.695Z,5.47
2023-11-29T12:38:12.723Z,5.80
2023-11-29T12:40:40.802Z,4.83
2023-11-29T12:43:09.017Z,4.70
2023-11-29T12:45:38.414Z,5.80
2023-11-29T12:48:07.154Z,5.43
2023-11-29T12:50:36.173Z,4.90
2023-11-29T12:53:04.536Z,5.77
2023-11-29T12:55:32.873Z,4.80
2023-11-29T12:58:01.566Z,5.40
2023-11-29T13:00:29.636Z,4.67
2023-11-29T13:02:59.016Z,5.80
2023-11-29T13:05:27.180Z,4.33
2023-11-29T13:07:55.268Z,5.10
2023-11-29T13:10:26.461Z,4.67
2023-11-29T13:12:54.537Z,4.83
2023-11-29T13:15:22.517Z,4.70
2023-11-29T13:17:50.643Z,4.37
2023-11-29T13:20:20.406Z,4.13
2023-11-29T13:22:48.713Z,5.43
2023-11-29T13:25:16.907Z,4.17
2023-11-29T13:27:44.927Z,5.27
2023-11-29T13:30:13.701Z,4.20
2023-11-29T13:32:42.575Z,5.70
2023-11-29T13:35:12.543Z,4.43
2023-11-29T13:37:42.133Z,5.20
2023-11-29T13:40:11.712Z,4.80
2023-11-29T13:42:39.741Z,4.60
2023-11-29T13:45:09.394Z,4.50
2023-11-29T13:47:38.395Z,5.00
2023-11-29T13:50:08.480Z,4.10
2023-11-29T13:52:37.177Z,4.90
2023-11-29T13:55:07.768Z,5.37
2023-11-29T13:57:36.216Z,4.40
2023-11-29T14:00:06.181Z,4.37
2023-11-29T14:02:34.571Z,5.07
2023-11-29T14:05:02.919Z,4.50
2023-11-29T14:07:31.259Z,5.03
2023-11-29T14:09:59.303Z,4.37
2023-11-29T14:12:28.698Z,4.47
2023-11-29T14:14:57.734Z,5.90
2023-11-29T14:17:26.882Z,4.07
2023-11-29T14:19:55.223Z,4.83
2023-11-29T14:22:24.623Z,4.27
2023-11-29T14:24:52.783Z,5.30
2023-11-29T14:27:23.403Z,4.83
2023-11-29T14:29:52.828Z,4.70
2023-11-29T14:32:21.324Z,5.63
2023-11-29T14:34:49.706Z,11.00
2023-11-29T14:37:18.446Z,6.40
2023-11-29T14:39:49.544Z,5.60
2023-11-29T14:42:18.878Z,10.80
2023-11-29T14:44:47.008Z,8.23
2023-11-29T14:47:17.920Z,8.87
2023-11-29T14:49:46.116Z,12.87
2023-11-29T14:52:14.352Z,16.40
2023-11-29T14:54:42.463Z,36.53
2023-11-29T14:57:10.604Z,35.30
2023-11-29T14:59:38.701Z,6.93
2023-11-29T15:02:09.832Z,54.17
2023-11-29T15:04:42.349Z,31.70
2023-11-29T15:07:10.351Z,21.57
2023-11-29T15:09:39.528Z,44.93
2023-11-29T15:12:08.298Z,9.10
2023-11-29T15:14:36.580Z,8.83
2023-11-29T15:17:04.866Z,7.40
2023-11-29T15:19:32.963Z,5.73
2023-11-29T15:22:02.860Z,6.80
2023-11-29T15:24:30.993Z,5.60
2023-11-29T15:26:59.872Z,7.27
2023-11-29T15:29:30.416Z,9.60
2023-11-29T15:32:00.284Z,6.53
2023-11-29T15:34:28.362Z,5.80
2023-11-29T15:36:56.530Z,6.13
2023-11-29T15:39:26.016Z,6.07
2023-11-29T15:41:57.417Z,7.50
2023-11-29T15:44:27.439Z,7.73
2023-11-29T15:46:55.776Z,7.90
2023-11-29T15:49:23.891Z,15.67
2023-11-29T15:51:51.858Z,19.80
2023-11-29T15:54:19.960Z,15.63
2023-11-29T15:56:49.327Z,28.50
2023-11-29T15:59:23.709Z,11.83
2023-11-29T16:01:52.187Z,53.67
2023-11-29T16:04:20.446Z,15.30
2023-11-29T16:06:48.618Z,12.47
2023-11-29T16:09:17.106Z,12.57
2023-11-29T16:11:45.223Z,13.67
2023-11-29T16:14:14.918Z,8.30
2023-11-29T16:16:43.587Z,10.03
2023-11-29T16:19:11.662Z,8.80
2023-11-29T16:21:39.801Z,8.90
2023-11-29T16:24:08.216Z,8.80
2023-11-29T16:26:36.306Z,8.83
2023-11-29T16:29:04.401Z,9.63
2023-11-29T16:31:34.604Z,7.93
2023-11-29T16:34:02.845Z,10.03
2023-11-29T16:36:31.244Z,15.97
2023-11-29T16:38:59.383Z,9.83
2023-11-29T16:41:27.758Z,10.77
2023-11-29T16:43:55.853Z,10.07
2023-11-29T16:46:26.457Z,9.87
2023-11-29T16:48:58.373Z,11.97
2023-11-29T16:51:26.463Z,11.10
2023-11-29T16:53:54.546Z,9.70
2023-11-29T16:56:22.521Z,10.70
2023-11-29T16:58:51.912Z,8.97
2023-11-29T17:01:23.576Z,8.90
2023-11-29T17:03:54.137Z,8.37
2023-11-29T17:06:24.237Z,8.87
2023-11-29T17:08:53.670Z,8.90
2023-11-29T17:11:21.814Z,8.90
2023-11-29T17:13:49.894Z,9.20
2023-11-29T17:16:17.965Z,8.03
2023-11-29T17:18:46.561Z,7.47
2023-11-29T17:21:17.949Z,7.50
2023-11-29T17:23:49.655Z,6.50
2023-11-29T17:26:19.218Z,6.30
2023-11-29T17:28:47.307Z,7.23
2023-11-29T17:31:15.493Z,7.13
2023-11-29T17:33:43.686Z,15.37
2023-11-29T17:36:12.344Z,8.00
2023-11-29T17:38:40.521Z,7.73
2023-11-29T17:41:23.590Z,17.33
2023-11-29T17:43:50.601Z,10.80
2023-11-29T17:46:23.881Z,7.53
2023-11-29T17:48:52.225Z,12.37
2023-11-29T17:51:21.314Z,12.80
2023-11-29T17:53:53.131Z,14.30
2023-11-29T17:56:28.769Z,7.90
2023-11-29T17:59:04.426Z,13.50
2023-11-29T18:01:32.529Z,15.03
2023-11-29T18:04:05.299Z,22.00
2023-11-29T18:06:33.579Z,8.27
2023-11-29T18:09:03.495Z,8.23
2023-11-29T18:11:33.673Z,8.70
2023-11-29T18:14:02.847Z,8.43
2023-11-29T18:16:31.287Z,10.60
2023-11-29T18:18:59.832Z,9.80
2023-11-29T18:21:28.315Z,7.73
2023-11-29T18:23:57.225Z,8.90
2023-11-29T18:26:25.375Z,10.13
2023-11-29T18:28:56.063Z,10.90
2023-11-29T18:31:24.087Z,10.97
2023-11-29T18:33:52.175Z,10.27
2023-11-29T18:36:22.029Z,10.80
2023-11-29T18:38:54.844Z,9.73
2023-11-29T18:41:22.996Z,9.00
2023-11-29T18:43:51.104Z,9.70
2023-11-29T18:46:20.688Z,10.60
2023-11-29T18:48:50.083Z,12.10
2023-11-29T18:51:20.017Z,14.67
2023-11-29T18:53:48.581Z,10.37
2023-11-29T18:56:16.947Z,9.97
2023-11-29T18:58:45.144Z,10.10
2023-11-29T19:01:13.202Z,17.70
2023-11-29T19:03:42.690Z,23.30
2023-11-29T19:06:11.100Z,12.83
2023-11-29T19:08:40.838Z,12.20
2023-11-29T19:11:09.058Z,12.43
2023-11-29T19:13:37.165Z,12.00
2023-11-29T19:16:05.727Z,15.13
2023-11-29T19:18:34.434Z,13.77
2023-11-29T19:21:04.223Z,12.10
2023-11-29T19:23:38.394Z,10.43
2023-11-29T19:26:11.299Z,11.13
2023-11-29T19:28:42.506Z,19.33
2023-11-29T19:31:10.542Z,12.23
2023-11-29T19:33:38.850Z,16.60
2023-11-29T19:36:09.466Z,16.90
2023-11-29T19:38:38.185Z,15.77
2023-11-29T19:41:06.770Z,15.30
2023-11-29T19:43:34.730Z,17.13
2023-11-29T19:46:02.756Z,15.13
2023-11-29T19:48:30.863Z,12.30
2023-11-29T19:50:59.089Z,10.80
2023-11-29T19:53:28.799Z,11.30
2023-11-29T19:55:57.029Z,12.47
2023-11-29T19:58:30.388Z,12.70
2023-11-29T20:01:00.978Z,13.43
2023-11-29T20:03:29.301Z,12.37
2023-11-29T20:06:00.550Z,12.60
2023-11-29T20:08:30.106Z,12.17
2023-11-29T20:10:59.130Z,11.30
2023-11-29T20:13:27.610Z,11.93
2023-11-29T20:15:56.173Z,12.77
2023-11-29T20:18:26.064Z,12.80
2023-11-29T20:21:01.693Z,11.00
2023-11-29T20:23:33.885Z,11.93
2023-11-29T20:26:02.217Z,9.93
2023-11-29T20:28:30.318Z,11.00
2023-11-29T20:31:00.267Z,19.50
2023-11-29T20:33:28.627Z,12.87
2023-11-29T20:35:57.533Z,11.40
2023-11-29T20:38:28.886Z,13.17
2023-11-29T20:40:58.316Z,9.80
2023-11-29T20:43:28.070Z,11.13
2023-11-29T20:45:57.574Z,12.03
2023-11-29T20:48:25.747Z,13.87
2023-11-29T20:50:53.786Z,12.43
2023-11-29T20:53:21.798Z,14.20
2023-11-29T20:55:50.827Z,11.50
2023-11-29T20:58:22.380Z,13.00
2023-11-29T21:00:50.847Z,12.20
2023-11-29T21:03:19.034Z,12.30
2023-11-29T21:05:48.209Z,11.50
2023-11-29T21:08:16.334Z,10.40
2023-11-29T21:10:44.454Z,12.80
2023-11-29T21:13:13.112Z,11.73
2023-11-29T21:15:42.923Z,10.60
2023-11-29T21:18:11.214Z,11.13
2023-11-29T21:20:44.418Z,12.20
2023-11-29T21:23:18.916Z,12.40
2023-11-29T21:25:56.950Z,16.67
2023-11-29T21:28:25.097Z,13.70
2023-11-29T21:30:54.479Z,13.20
2023-11-29T21:33:22.849Z,13.97
2023-11-29T21:35:51.651Z,13.57
2023-11-29T21:38:20.143Z,15.07
2023-11-29T21:40:49.420Z,14.63
2023-11-29T21:43:17.901Z,14.63
2023-11-29T21:45:46.442Z,14.80
2023-11-29T21:48:16.118Z,13.40
2023-11-29T21:50:44.954Z,11.77
2023-11-29T21:53:13.219Z,11.93
2023-11-29T21:55:41.254Z,11.80
2023-11-29T21:58:11.528Z,12.13
2023-11-29T22:00:39.602Z,10.60
2023-11-29T22:03:08.340Z,11.93
2023-11-29T22:05:41.439Z,10.93
2023-11-29T22:08:09.565Z,12.20
2023-11-29T22:10:37.884Z,10.73
2023-11-29T22:13:06.112Z,11.40
2023-11-29T22:15:33.216Z,11.10
2023-11-29T22:18:01.411Z,11.30
2023-11-29T22:20:29.500Z,11.03
2023-11-29T22:22:59.628Z,11.33
2023-11-29T22:25:27.719Z,11.93
2023-11-29T22:27:55.849Z,12.90
2023-11-29T22:30:23.922Z,13.50
2023-11-29T22:32:52.155Z,12.97
2023-11-29T22:35:20.184Z,12.07
2023-11-29T22:37:48.188Z,11.80
2023-11-29T22:40:17.655Z,11.33
2023-11-29T22:42:45.873Z,11.47
2023-11-29T22:45:14.593Z,10.70
2023-11-29T22:47:43.925Z,20.40
2023-11-29T22:50:12.131Z,19.10
2023-11-29T22:52:40.111Z,25.03
2023-11-29T22:55:09.031Z,17.60
2023-11-29T22:57:38.489Z,13.83
2023-11-29T23:00:12.049Z,13.63
2023-11-29T23:02:43.397Z,13.33
2023-11-29T23:05:11.540Z,11.67
2023-11-29T23:07:41.120Z,12.30
2023-11-29T23:10:10.532Z,11.93
2023-11-29T23:12:42.728Z,11.67
2023-11-29T23:15:11.904Z,11.67
2023-11-29T23:17:40.454Z,10.57
2023-11-29T23:20:10.011Z,12.80
2023-11-29T23:22:38.030Z,17.23
2023-11-29T23:25:06.743Z,14.13
2023-11-29T23:27:34.831Z,12.80
2023-11-29T23:30:04.659Z,12.20
2023-11-29T23:32:32.738Z,13.17
2023-11-29T23:35:01.156Z,13.87
2023-11-29T23:37:29.196Z,12.93
2023-11-29T23:39:57.231Z,12.93
2023-11-29T23:42:25.310Z,12.90
2023-11-29T23:44:53.331Z,14.70
2023-11-29T23:47:22.692Z,12.17
2023-11-29T23:49:50.704Z,12.67
2023-11-29T23:52:18.676Z,10.53
2023-11-29T23:54:46.671Z,12.17
2023-11-29T23:57:14.730Z,11.47
2023-11-29T23:59:44.017Z,11.17
